sensor_id;sensor_type;location;lat;lon;timestamp;P1;durP1;ratioP1;P2;durP2;ratioP2
64903;SDS011;51401;48.882;12.598;2024-02-21T00:01:21;7.53;;;4.53;;
64903;SDS011;51401;48.882;12.598;2024-02-21T00:03:47;7.53;;;4.80;;
64903;SDS011;51401;48.882;12.598;2024-02-21T00:06:12;10.02;;;5.25;;
64903;SDS011;51401;48.882;12.598;2024-02-21T00:08:38;7.80;;;4.55;;
64903;SDS011;51401;48.882;12.598;2024-02-21T00:11:03;8.35;;;4.82;;
64903;SDS011;51401;48.882;12.598;2024-02-21T00:13:29;8.88;;;5.22;;
64903;SDS011;51401;48.882;12.598;2024-02-21T00:15:54;8.95;;;5.22;;
64903;SDS011;51401;48.882;12.598;2024-02-21T00:18:20;8.77;;;4.85;;
64903;SDS011;51401;48.882;12.598;2024-02-21T00:20:45;11.60;;;5.85;;
64903;SDS011;51401;48.882;12.598;2024-02-21T00:23:11;8.27;;;4.53;;
64903;SDS011;51401;48.882;12.598;2024-02-21T00:25:36;8.88;;;5.15;;
64903;SDS011;51401;48.882;12.598;2024-02-21T00:28:02;9.38;;;4.82;;
64903;SDS011;51401;48.882;12.598;2024-02-21T00:30:28;8.27;;;5.03;;
64903;SDS011;51401;48.882;12.598;2024-02-21T00:32:53;8.52;;;5.03;;
64903;SDS011;51401;48.882;12.598;2024-02-21T00:35:18;8.63;;;4.67;;
64903;SDS011;51401;48.882;12.598;2024-02-21T00:37:44;9.57;;;4.35;;
64903;SDS011;51401;48.882;12.598;2024-02-21T00:40:09;6.13;;;4.17;;
64903;SDS011;51401;48.882;12.598;2024-02-21T00:42:35;10.63;;;5.47;;
64903;SDS011;51401;48.882;12.598;2024-02-21T00:45:01;6.03;;;4.03;;
64903;SDS011;51401;48.882;12.598;2024-02-21T00:47:26;8.38;;;4.35;;
64903;SDS011;51401;48.882;12.598;2024-02-21T00:49:52;6.78;;;4.40;;
64903;SDS011;51401;48.882;12.598;2024-02-21T00:52:17;8.23;;;4.40;;
64903;SDS011;51401;48.882;12.598;2024-02-21T00:54:43;11.02;;;3.80;;
64903;SDS011;51401;48.882;12.598;2024-02-21T00:57:08;7.82;;;4.32;;
64903;SDS011;51401;48.882;12.598;2024-02-21T00:59:33;8.03;;;4.10;;
64903;SDS011;51401;48.882;12.598;2024-02-21T01:01:59;7.68;;;4.05;;
64903;SDS011;51401;48.882;12.598;2024-02-21T01:04:25;6.95;;;4.35;;
64903;SDS011;51401;48.882;12.598;2024-02-21T01:06:50;9.05;;;4.47;;
64903;SDS011;51401;48.882;12.598;2024-02-21T01:09:15;9.25;;;4.00;;
64903;SDS011;51401;48.882;12.598;2024-02-21T01:11:41;6.75;;;4.18;;
64903;SDS011;51401;48.882;12.598;2024-02-21T01:14:06;6.88;;;4.43;;
64903;SDS011;51401;48.882;12.598;2024-02-21T01:16:31;5.88;;;3.75;;
64903;SDS011;51401;48.882;12.598;2024-02-21T01:18:57;4.80;;;3.15;;
64903;SDS011;51401;48.882;12.598;2024-02-21T01:21:22;6.60;;;3.72;;
64903;SDS011;51401;48.882;12.598;2024-02-21T01:23:47;6.40;;;3.72;;
64903;SDS011;51401;48.882;12.598;2024-02-21T01:26:13;7.20;;;3.80;;
64903;SDS011;51401;48.882;12.598;2024-02-21T01:28:40;9.88;;;4.10;;
64903;SDS011;51401;48.882;12.598;2024-02-21T01:31:06;6.78;;;3.60;;
64903;SDS011;51401;48.882;12.598;2024-02-21T01:33:32;8.65;;;4.60;;
64903;SDS011;51401;48.882;12.598;2024-02-21T01:36:00;7.65;;;4.10;;
64903;SDS011;51401;48.882;12.598;2024-02-21T01:38:27;7.72;;;3.85;;
64903;SDS011;51401;48.882;12.598;2024-02-21T01:40:53;9.70;;;5.13;;
64903;SDS011;51401;48.882;12.598;2024-02-21T01:43:19;6.80;;;4.07;;
64903;SDS011;51401;48.882;12.598;2024-02-21T01:45:46;7.70;;;4.53;;
64903;SDS011;51401;48.882;12.598;2024-02-21T01:48:17;7.50;;;4.28;;
64903;SDS011;51401;48.882;12.598;2024-02-21T01:50:43;10.43;;;4.90;;
64903;SDS011;51401;48.882;12.598;2024-02-21T01:53:13;5.80;;;3.97;;
64903;SDS011;51401;48.882;12.598;2024-02-21T01:55:46;7.50;;;3.67;;
64903;SDS011;51401;48.882;12.598;2024-02-21T01:58:13;10.85;;;3.95;;
64903;SDS011;51401;48.882;12.598;2024-02-21T02:00:40;5.53;;;3.78;;
64903;SDS011;51401;48.882;12.598;2024-02-21T02:03:07;6.05;;;4.00;;
64903;SDS011;51401;48.882;12.598;2024-02-21T02:05:45;8.57;;;4.15;;
64903;SDS011;51401;48.882;12.598;2024-02-21T02:08:11;7.70;;;3.88;;
64903;SDS011;51401;48.882;12.598;2024-02-21T02:10:38;8.43;;;4.55;;
64903;SDS011;51401;48.882;12.598;2024-02-21T02:13:05;6.57;;;4.05;;
64903;SDS011;51401;48.882;12.598;2024-02-21T02:15:40;5.90;;;3.40;;
64903;SDS011;51401;48.882;12.598;2024-02-21T02:18:10;7.40;;;3.97;;
64903;SDS011;51401;48.882;12.598;2024-02-21T02:20:35;7.20;;;4.05;;
64903;SDS011;51401;48.882;12.598;2024-02-21T02:23:04;7.15;;;4.13;;
64903;SDS011;51401;48.882;12.598;2024-02-21T02:25:33;6.28;;;4.05;;
64903;SDS011;51401;48.882;12.598;2024-02-21T02:27:58;7.32;;;3.60;;
64903;SDS011;51401;48.882;12.598;2024-02-21T02:30:25;5.28;;;3.75;;
64903;SDS011;51401;48.882;12.598;2024-02-21T02:32:50;5.70;;;3.72;;
64903;SDS011;51401;48.882;12.598;2024-02-21T02:35:15;8.27;;;4.50;;
64903;SDS011;51401;48.882;12.598;2024-02-21T02:37:47;8.60;;;4.85;;
64903;SDS011;51401;48.882;12.598;2024-02-21T02:40:12;5.90;;;4.32;;
64903;SDS011;51401;48.882;12.598;2024-02-21T02:42:38;7.72;;;4.28;;
64903;SDS011;51401;48.882;12.598;2024-02-21T02:45:03;5.65;;;3.65;;
64903;SDS011;51401;48.882;12.598;2024-02-21T02:47:29;7.40;;;4.15;;
64903;SDS011;51401;48.882;12.598;2024-02-21T02:49:54;9.00;;;4.20;;
64903;SDS011;51401;48.882;12.598;2024-02-21T02:52:19;6.38;;;4.05;;
64903;SDS011;51401;48.882;12.598;2024-02-21T02:54:45;7.10;;;3.93;;
64903;SDS011;51401;48.882;12.598;2024-02-21T02:57:10;9.68;;;3.88;;
64903;SDS011;51401;48.882;12.598;2024-02-21T02:59:36;7.03;;;3.90;;
64903;SDS011;51401;48.882;12.598;2024-02-21T03:02:01;6.85;;;4.57;;
64903;SDS011;51401;48.882;12.598;2024-02-21T03:04:26;7.20;;;4.00;;
64903;SDS011;51401;48.882;12.598;2024-02-21T03:06:52;6.03;;;4.20;;
64903;SDS011;51401;48.882;12.598;2024-02-21T03:09:17;8.48;;;4.18;;
64903;SDS011;51401;48.882;12.598;2024-02-21T03:11:42;6.30;;;3.53;;
64903;SDS011;51401;48.882;12.598;2024-02-21T03:14:09;6.45;;;4.30;;
64903;SDS011;51401;48.882;12.598;2024-02-21T03:16:34;7.55;;;4.45;;
64903;SDS011;51401;48.882;12.598;2024-02-21T03:18:59;7.80;;;4.22;;
64903;SDS011;51401;48.882;12.598;2024-02-21T03:21:25;6.10;;;4.13;;
64903;SDS011;51401;48.882;12.598;2024-02-21T03:23:50;5.85;;;3.97;;
64903;SDS011;51401;48.882;12.598;2024-02-21T03:26:15;7.03;;;3.92;;
64903;SDS011;51401;48.882;12.598;2024-02-21T03:28:42;5.72;;;4.07;;
64903;SDS011;51401;48.882;12.598;2024-02-21T03:31:10;9.07;;;4.22;;
64903;SDS011;51401;48.882;12.598;2024-02-21T03:33:36;7.18;;;4.03;;
64903;SDS011;51401;48.882;12.598;2024-02-21T03:36:01;6.05;;;3.90;;
64903;SDS011;51401;48.882;12.598;2024-02-21T03:38:27;8.40;;;4.50;;
64903;SDS011;51401;48.882;12.598;2024-02-21T03:40:52;6.28;;;4.05;;
64903;SDS011;51401;48.882;12.598;2024-02-21T03:43:18;8.27;;;3.50;;
64903;SDS011;51401;48.882;12.598;2024-02-21T03:45:43;5.80;;;3.80;;
64903;SDS011;51401;48.882;12.598;2024-02-21T03:48:08;5.50;;;3.30;;
64903;SDS011;51401;48.882;12.598;2024-02-21T03:50:33;6.67;;;3.87;;
64903;SDS011;51401;48.882;12.598;2024-02-21T03:52:59;6.80;;;3.67;;
64903;SDS011;51401;48.882;12.598;2024-02-21T03:55:24;8.95;;;4.53;;
64903;SDS011;51401;48.882;12.598;2024-02-21T03:57:50;7.95;;;4.40;;
64903;SDS011;51401;48.882;12.598;2024-02-21T04:00:27;6.82;;;4.45;;
64903;SDS011;51401;48.882;12.598;2024-02-21T04:02:52;8.53;;;4.10;;
64903;SDS011;51401;48.882;12.598;2024-02-21T04:05:17;6.17;;;4.03;;
64903;SDS011;51401;48.882;12.598;2024-02-21T04:07:43;8.13;;;4.03;;
64903;SDS011;51401;48.882;12.598;2024-02-21T04:10:08;7.68;;;3.90;;
64903;SDS011;51401;48.882;12.598;2024-02-21T04:12:33;10.13;;;4.50;;
64903;SDS011;51401;48.882;12.598;2024-02-21T04:14:59;6.60;;;3.90;;
64903;SDS011;51401;48.882;12.598;2024-02-21T04:17:25;7.80;;;4.70;;
64903;SDS011;51401;48.882;12.598;2024-02-21T04:19:50;9.05;;;4.32;;
64903;SDS011;51401;48.882;12.598;2024-02-21T04:22:25;7.95;;;3.70;;
64903;SDS011;51401;48.882;12.598;2024-02-21T04:24:51;5.77;;;3.87;;
64903;SDS011;51401;48.882;12.598;2024-02-21T04:27:16;8.23;;;3.45;;
64903;SDS011;51401;48.882;12.598;2024-02-21T04:29:41;4.30;;;3.20;;
64903;SDS011;51401;48.882;12.598;2024-02-21T04:32:06;7.50;;;3.70;;
64903;SDS011;51401;48.882;12.598;2024-02-21T04:34:33;4.88;;;3.60;;
64903;SDS011;51401;48.882;12.598;2024-02-21T04:36:58;5.53;;;3.63;;
64903;SDS011;51401;48.882;12.598;2024-02-21T04:39:23;8.35;;;4.05;;
64903;SDS011;51401;48.882;12.598;2024-02-21T04:41:48;5.50;;;4.00;;
64903;SDS011;51401;48.882;12.598;2024-02-21T04:44:14;7.35;;;3.83;;
64903;SDS011;51401;48.882;12.598;2024-02-21T04:46:43;5.05;;;3.72;;
64903;SDS011;51401;48.882;12.598;2024-02-21T04:49:09;6.22;;;3.85;;
64903;SDS011;51401;48.882;12.598;2024-02-21T04:51:34;6.35;;;3.33;;
64903;SDS011;51401;48.882;12.598;2024-02-21T04:53:59;7.07;;;3.90;;
64903;SDS011;51401;48.882;12.598;2024-02-21T04:56:24;5.55;;;3.17;;
64903;SDS011;51401;48.882;12.598;2024-02-21T04:58:50;4.05;;;3.65;;
64903;SDS011;51401;48.882;12.598;2024-02-21T05:01:15;5.07;;;3.37;;
64903;SDS011;51401;48.882;12.598;2024-02-21T05:03:40;5.28;;;3.67;;
64903;SDS011;51401;48.882;12.598;2024-02-21T05:06:05;6.00;;;4.30;;
64903;SDS011;51401;48.882;12.598;2024-02-21T05:08:31;9.20;;;4.50;;
64903;SDS011;51401;48.882;12.598;2024-02-21T05:10:56;7.18;;;4.00;;
64903;SDS011;51401;48.882;12.598;2024-02-21T05:13:21;4.90;;;3.78;;
64903;SDS011;51401;48.882;12.598;2024-02-21T05:15:47;5.72;;;3.63;;
64903;SDS011;51401;48.882;12.598;2024-02-21T05:18:12;6.57;;;3.90;;
64903;SDS011;51401;48.882;12.598;2024-02-21T05:20:37;6.70;;;4.17;;
64903;SDS011;51401;48.882;12.598;2024-02-21T05:23:03;8.37;;;4.73;;
64903;SDS011;51401;48.882;12.598;2024-02-21T05:25:29;9.00;;;5.13;;
64903;SDS011;51401;48.882;12.598;2024-02-21T05:27:54;7.53;;;4.13;;
64903;SDS011;51401;48.882;12.598;2024-02-21T05:30:20;5.53;;;3.63;;
64903;SDS011;51401;48.882;12.598;2024-02-21T05:32:46;6.40;;;3.93;;
64903;SDS011;51401;48.882;12.598;2024-02-21T05:35:11;10.20;;;5.15;;
64903;SDS011;51401;48.882;12.598;2024-02-21T05:37:36;9.03;;;5.33;;
64903;SDS011;51401;48.882;12.598;2024-02-21T05:40:02;8.90;;;4.87;;
64903;SDS011;51401;48.882;12.598;2024-02-21T05:42:27;11.20;;;5.65;;
64903;SDS011;51401;48.882;12.598;2024-02-21T05:44:52;8.85;;;5.10;;
64903;SDS011;51401;48.882;12.598;2024-02-21T05:47:18;6.97;;;4.38;;
64903;SDS011;51401;48.882;12.598;2024-02-21T05:49:45;5.38;;;3.65;;
64903;SDS011;51401;48.882;12.598;2024-02-21T05:52:10;8.50;;;3.80;;
64903;SDS011;51401;48.882;12.598;2024-02-21T05:54:39;6.18;;;3.50;;
64903;SDS011;51401;48.882;12.598;2024-02-21T05:57:05;7.20;;;3.70;;
64903;SDS011;51401;48.882;12.598;2024-02-21T05:59:31;6.25;;;3.67;;
64903;SDS011;51401;48.882;12.598;2024-02-21T06:01:56;6.57;;;3.88;;
64903;SDS011;51401;48.882;12.598;2024-02-21T06:04:22;6.72;;;4.15;;
64903;SDS011;51401;48.882;12.598;2024-02-21T06:06:48;7.07;;;4.45;;
64903;SDS011;51401;48.882;12.598;2024-02-21T06:09:13;6.10;;;4.43;;
64903;SDS011;51401;48.882;12.598;2024-02-21T06:11:38;6.77;;;4.20;;
64903;SDS011;51401;48.882;12.598;2024-02-21T06:14:04;5.90;;;3.35;;
64903;SDS011;51401;48.882;12.598;2024-02-21T06:16:29;8.23;;;4.35;;
64903;SDS011;51401;48.882;12.598;2024-02-21T06:18:54;7.68;;;4.28;;
64903;SDS011;51401;48.882;12.598;2024-02-21T06:21:19;8.32;;;4.53;;
64903;SDS011;51401;48.882;12.598;2024-02-21T06:23:45;7.72;;;3.97;;
64903;SDS011;51401;48.882;12.598;2024-02-21T06:26:10;7.72;;;3.78;;
64903;SDS011;51401;48.882;12.598;2024-02-21T06:28:35;6.57;;;4.23;;
64903;SDS011;51401;48.882;12.598;2024-02-21T06:31:00;5.50;;;4.03;;
64903;SDS011;51401;48.882;12.598;2024-02-21T06:33:26;8.20;;;4.20;;
64903;SDS011;51401;48.882;12.598;2024-02-21T06:35:51;6.10;;;3.30;;
64903;SDS011;51401;48.882;12.598;2024-02-21T06:38:18;5.85;;;3.60;;
64903;SDS011;51401;48.882;12.598;2024-02-21T06:40:44;4.78;;;3.30;;
64903;SDS011;51401;48.882;12.598;2024-02-21T06:43:14;5.35;;;3.75;;
64903;SDS011;51401;48.882;12.598;2024-02-21T06:45:39;4.88;;;3.33;;
64903;SDS011;51401;48.882;12.598;2024-02-21T06:48:04;7.73;;;5.90;;
64903;SDS011;51401;48.882;12.598;2024-02-21T06:50:30;21.45;;;14.57;;
64903;SDS011;51401;48.882;12.598;2024-02-21T06:52:55;27.40;;;20.48;;
64903;SDS011;51401;48.882;12.598;2024-02-21T06:55:20;14.50;;;9.17;;
64903;SDS011;51401;48.882;12.598;2024-02-21T06:57:46;9.53;;;6.10;;
64903;SDS011;51401;48.882;12.598;2024-02-21T07:00:13;6.93;;;3.78;;
64903;SDS011;51401;48.882;12.598;2024-02-21T07:02:38;6.82;;;3.20;;
64903;SDS011;51401;48.882;12.598;2024-02-21T07:05:04;5.30;;;3.27;;
64903;SDS011;51401;48.882;12.598;2024-02-21T07:07:30;4.40;;;3.05;;
64903;SDS011;51401;48.882;12.598;2024-02-21T07:09:55;7.15;;;3.90;;
64903;SDS011;51401;48.882;12.598;2024-02-21T07:12:20;7.80;;;3.65;;
64903;SDS011;51401;48.882;12.598;2024-02-21T07:14:46;6.38;;;3.63;;
64903;SDS011;51401;48.882;12.598;2024-02-21T07:17:11;7.40;;;4.05;;
64903;SDS011;51401;48.882;12.598;2024-02-21T07:19:36;7.72;;;3.50;;
64903;SDS011;51401;48.882;12.598;2024-02-21T07:22:01;10.15;;;4.10;;
64903;SDS011;51401;48.882;12.598;2024-02-21T07:24:27;8.20;;;4.47;;
64903;SDS011;51401;48.882;12.598;2024-02-21T07:26:53;9.18;;;5.10;;
64903;SDS011;51401;48.882;12.598;2024-02-21T07:29:18;9.90;;;4.65;;
64903;SDS011;51401;48.882;12.598;2024-02-21T07:31:44;6.60;;;4.22;;
64903;SDS011;51401;48.882;12.598;2024-02-21T07:34:09;4.53;;;3.75;;
64903;SDS011;51401;48.882;12.598;2024-02-21T07:36:35;5.93;;;4.00;;
64903;SDS011;51401;48.882;12.598;2024-02-21T07:39:02;5.35;;;3.63;;
64903;SDS011;51401;48.882;12.598;2024-02-21T07:41:28;5.63;;;3.22;;
64903;SDS011;51401;48.882;12.598;2024-02-21T07:43:55;4.45;;;3.17;;
64903;SDS011;51401;48.882;12.598;2024-02-21T07:46:20;4.63;;;3.17;;
64903;SDS011;51401;48.882;12.598;2024-02-21T07:48:46;5.68;;;3.00;;
64903;SDS011;51401;48.882;12.598;2024-02-21T07:51:11;4.95;;;2.92;;
64903;SDS011;51401;48.882;12.598;2024-02-21T07:53:38;5.83;;;3.20;;
64903;SDS011;51401;48.882;12.598;2024-02-21T07:56:03;4.53;;;3.10;;
64903;SDS011;51401;48.882;12.598;2024-02-21T07:58:29;6.07;;;3.03;;
64903;SDS011;51401;48.882;12.598;2024-02-21T08:00:54;5.47;;;3.15;;
64903;SDS011;51401;48.882;12.598;2024-02-21T08:03:20;8.20;;;2.93;;
64903;SDS011;51401;48.882;12.598;2024-02-21T08:05:45;4.97;;;3.00;;
64903;SDS011;51401;48.882;12.598;2024-02-21T08:08:11;6.70;;;3.50;;
64903;SDS011;51401;48.882;12.598;2024-02-21T08:10:39;5.70;;;3.25;;
64903;SDS011;51401;48.882;12.598;2024-02-21T08:13:04;4.85;;;3.00;;
64903;SDS011;51401;48.882;12.598;2024-02-21T08:15:29;6.05;;;3.10;;
64903;SDS011;51401;48.882;12.598;2024-02-21T08:17:57;6.13;;;3.15;;
64903;SDS011;51401;48.882;12.598;2024-02-21T08:20:26;5.50;;;3.70;;
64903;SDS011;51401;48.882;12.598;2024-02-21T08:22:51;4.95;;;3.05;;
64903;SDS011;51401;48.882;12.598;2024-02-21T08:25:17;4.85;;;3.28;;
64903;SDS011;51401;48.882;12.598;2024-02-21T08:27:42;7.57;;;3.20;;
64903;SDS011;51401;48.882;12.598;2024-02-21T08:30:08;7.32;;;3.20;;
64903;SDS011;51401;48.882;12.598;2024-02-21T08:32:34;6.78;;;3.25;;
64903;SDS011;51401;48.882;12.598;2024-02-21T08:35:01;4.32;;;2.88;;
64903;SDS011;51401;48.882;12.598;2024-02-21T08:37:29;4.93;;;2.50;;
64903;SDS011;51401;48.882;12.598;2024-02-21T08:39:55;5.80;;;3.05;;
64903;SDS011;51401;48.882;12.598;2024-02-21T08:42:20;3.72;;;2.72;;
64903;SDS011;51401;48.882;12.598;2024-02-21T08:44:45;6.82;;;3.03;;
64903;SDS011;51401;48.882;12.598;2024-02-21T08:47:11;4.25;;;2.60;;
64903;SDS011;51401;48.882;12.598;2024-02-21T08:49:36;6.47;;;2.72;;
64903;SDS011;51401;48.882;12.598;2024-02-21T08:52:02;3.28;;;2.17;;
64903;SDS011;51401;48.882;12.598;2024-02-21T08:54:28;3.75;;;2.40;;
64903;SDS011;51401;48.882;12.598;2024-02-21T08:56:54;5.30;;;2.70;;
64903;SDS011;51401;48.882;12.598;2024-02-21T08:59:20;4.03;;;3.10;;
64903;SDS011;51401;48.882;12.598;2024-02-21T09:01:45;7.90;;;2.72;;
64903;SDS011;51401;48.882;12.598;2024-02-21T09:04:11;5.85;;;2.40;;
64903;SDS011;51401;48.882;12.598;2024-02-21T09:06:37;7.43;;;3.13;;
64903;SDS011;51401;48.882;12.598;2024-02-21T09:09:06;5.15;;;2.58;;
64903;SDS011;51401;48.882;12.598;2024-02-21T09:11:33;4.15;;;2.72;;
64903;SDS011;51401;48.882;12.598;2024-02-21T09:13:58;4.18;;;2.65;;
64903;SDS011;51401;48.882;12.598;2024-02-21T09:16:23;3.80;;;1.92;;
64903;SDS011;51401;48.882;12.598;2024-02-21T09:18:49;3.37;;;2.33;;
64903;SDS011;51401;48.882;12.598;2024-02-21T09:21:14;4.63;;;2.58;;
64903;SDS011;51401;48.882;12.598;2024-02-21T09:23:39;7.03;;;2.63;;
64903;SDS011;51401;48.882;12.598;2024-02-21T09:26:05;3.27;;;2.20;;
64903;SDS011;51401;48.882;12.598;2024-02-21T09:28:35;4.30;;;2.40;;
64903;SDS011;51401;48.882;12.598;2024-02-21T09:31:00;5.07;;;2.20;;
64903;SDS011;51401;48.882;12.598;2024-02-21T09:33:27;4.63;;;2.20;;
64903;SDS011;51401;48.882;12.598;2024-02-21T09:35:52;5.63;;;2.63;;
64903;SDS011;51401;48.882;12.598;2024-02-21T09:38:18;3.45;;;2.40;;
64903;SDS011;51401;48.882;12.598;2024-02-21T09:40:43;4.45;;;2.17;;
64903;SDS011;51401;48.882;12.598;2024-02-21T09:43:08;3.40;;;2.53;;
64903;SDS011;51401;48.882;12.598;2024-02-21T09:45:34;3.05;;;2.28;;
64903;SDS011;51401;48.882;12.598;2024-02-21T09:51:06;7.15;;;2.63;;
64903;SDS011;51401;48.882;12.598;2024-02-21T09:53:32;3.83;;;2.38;;
64903;SDS011;51401;48.882;12.598;2024-02-21T09:55:59;3.28;;;2.17;;
64903;SDS011;51401;48.882;12.598;2024-02-21T09:58:25;6.05;;;2.45;;
64903;SDS011;51401;48.882;12.598;2024-02-21T10:00:52;5.03;;;2.70;;
64903;SDS011;51401;48.882;12.598;2024-02-21T10:03:17;5.20;;;2.63;;
64903;SDS011;51401;48.882;12.598;2024-02-21T10:05:46;3.27;;;2.30;;
64903;SDS011;51401;48.882;12.598;2024-02-21T10:08:16;4.05;;;2.38;;
64903;SDS011;51401;48.882;12.598;2024-02-21T10:10:42;3.83;;;2.40;;
64903;SDS011;51401;48.882;12.598;2024-02-21T10:13:10;4.28;;;2.25;;
64903;SDS011;51401;48.882;12.598;2024-02-21T10:15:36;4.10;;;2.35;;
64903;SDS011;51401;48.882;12.598;2024-02-21T10:18:02;4.70;;;2.40;;
64903;SDS011;51401;48.882;12.598;2024-02-21T10:20:31;6.50;;;2.90;;
64903;SDS011;51401;48.882;12.598;2024-02-21T10:23:01;3.38;;;2.00;;
64903;SDS011;51401;48.882;12.598;2024-02-21T10:25:33;4.40;;;2.35;;
64903;SDS011;51401;48.882;12.598;2024-02-21T10:28:00;3.33;;;2.28;;
64903;SDS011;51401;48.882;12.598;2024-02-21T10:30:26;4.00;;;1.73;;
64903;SDS011;51401;48.882;12.598;2024-02-21T10:32:55;5.80;;;2.73;;
64903;SDS011;51401;48.882;12.598;2024-02-21T10:37:52;3.58;;;1.98;;
64903;SDS011;51401;48.882;12.598;2024-02-21T10:40:21;3.28;;;2.05;;
64903;SDS011;51401;48.882;12.598;2024-02-21T10:42:51;4.30;;;1.73;;
64903;SDS011;51401;48.882;12.598;2024-02-21T10:45:30;3.88;;;2.22;;
64903;SDS011;51401;48.882;12.598;2024-02-21T10:48:00;3.78;;;2.28;;
64903;SDS011;51401;48.882;12.598;2024-02-21T10:50:33;5.30;;;2.63;;
64903;SDS011;51401;48.882;12.598;2024-02-21T10:53:09;4.53;;;2.50;;
64903;SDS011;51401;48.882;12.598;2024-02-21T10:55:50;4.47;;;2.10;;
64903;SDS011;51401;48.882;12.598;2024-02-21T10:58:23;2.75;;;2.03;;
64903;SDS011;51401;48.882;12.598;2024-02-21T11:00:50;3.15;;;2.15;;
64903;SDS011;51401;48.882;12.598;2024-02-21T11:03:16;6.05;;;2.20;;
64903;SDS011;51401;48.882;12.598;2024-02-21T11:05:41;3.13;;;1.90;;
64903;SDS011;51401;48.882;12.598;2024-02-21T11:08:10;5.22;;;2.00;;
64903;SDS011;51401;48.882;12.598;2024-02-21T11:10:36;3.88;;;2.03;;
64903;SDS011;51401;48.882;12.598;2024-02-21T11:13:08;2.85;;;1.85;;
64903;SDS011;51401;48.882;12.598;2024-02-21T11:15:33;3.63;;;1.88;;
64903;SDS011;51401;48.882;12.598;2024-02-21T11:17:59;3.45;;;2.20;;
64903;SDS011;51401;48.882;12.598;2024-02-21T11:20:34;4.50;;;2.10;;
64903;SDS011;51401;48.882;12.598;2024-02-21T11:23:00;4.13;;;1.80;;
64903;SDS011;51401;48.882;12.598;2024-02-21T11:25:26;3.88;;;1.73;;
64903;SDS011;51401;48.882;12.598;2024-02-21T11:28:01;3.10;;;2.20;;
64903;SDS011;51401;48.882;12.598;2024-02-21T11:30:30;5.35;;;2.70;;
64903;SDS011;51401;48.882;12.598;2024-02-21T11:33:01;5.43;;;2.53;;
64903;SDS011;51401;48.882;12.598;2024-02-21T11:35:34;5.50;;;1.73;;
64903;SDS011;51401;48.882;12.598;2024-02-21T11:38:07;2.85;;;1.60;;
64903;SDS011;51401;48.882;12.598;2024-02-21T11:40:34;3.17;;;1.90;;
64903;SDS011;51401;48.882;12.598;2024-02-21T11:42:59;5.22;;;2.00;;
64903;SDS011;51401;48.882;12.598;2024-02-21T11:45:25;3.95;;;1.92;;
64903;SDS011;51401;48.882;12.598;2024-02-21T11:47:51;3.55;;;1.65;;
64903;SDS011;51401;48.882;12.598;2024-02-21T11:50:16;3.22;;;1.83;;
64903;SDS011;51401;48.882;12.598;2024-02-21T11:52:42;4.68;;;2.25;;
64903;SDS011;51401;48.882;12.598;2024-02-21T11:55:07;5.80;;;2.50;;
64903;SDS011;51401;48.882;12.598;2024-02-21T11:57:33;3.70;;;2.15;;
64903;SDS011;51401;48.882;12.598;2024-02-21T12:00:10;4.57;;;2.45;;
64903;SDS011;51401;48.882;12.598;2024-02-21T12:02:37;3.17;;;2.03;;
64903;SDS011;51401;48.882;12.598;2024-02-21T12:05:02;5.45;;;2.47;;
64903;SDS011;51401;48.882;12.598;2024-02-21T12:07:30;2.33;;;1.58;;
64903;SDS011;51401;48.882;12.598;2024-02-21T12:09:58;2.92;;;2.00;;
64903;SDS011;51401;48.882;12.598;2024-02-21T12:12:25;4.35;;;2.08;;
64903;SDS011;51401;48.882;12.598;2024-02-21T12:14:54;3.10;;;1.87;;
64903;SDS011;51401;48.882;12.598;2024-02-21T12:17:21;5.25;;;2.20;;
64903;SDS011;51401;48.882;12.598;2024-02-21T12:19:46;3.47;;;1.80;;
64903;SDS011;51401;48.882;12.598;2024-02-21T12:22:16;3.58;;;2.00;;
64903;SDS011;51401;48.882;12.598;2024-02-21T12:24:43;5.15;;;2.10;;
64903;SDS011;51401;48.882;12.598;2024-02-21T12:27:12;4.47;;;2.28;;
64903;SDS011;51401;48.882;12.598;2024-02-21T12:29:37;4.00;;;1.80;;
64903;SDS011;51401;48.882;12.598;2024-02-21T12:32:03;4.35;;;2.03;;
64903;SDS011;51401;48.882;12.598;2024-02-21T12:34:29;5.25;;;2.25;;
64903;SDS011;51401;48.882;12.598;2024-02-21T12:36:57;3.63;;;1.80;;
64903;SDS011;51401;48.882;12.598;2024-02-21T12:39:23;4.93;;;2.22;;
64903;SDS011;51401;48.882;12.598;2024-02-21T12:41:48;3.67;;;1.98;;
64903;SDS011;51401;48.882;12.598;2024-02-21T12:44:14;3.38;;;1.75;;
64903;SDS011;51401;48.882;12.598;2024-02-21T12:46:41;2.55;;;1.88;;
64903;SDS011;51401;48.882;12.598;2024-02-21T12:49:07;4.00;;;2.10;;
64903;SDS011;51401;48.882;12.598;2024-02-21T12:51:33;3.05;;;1.98;;
64903;SDS011;51401;48.882;12.598;2024-02-21T12:53:59;4.13;;;2.40;;
64903;SDS011;51401;48.882;12.598;2024-02-21T12:56:24;3.80;;;2.28;;
64903;SDS011;51401;48.882;12.598;2024-02-21T12:58:52;5.10;;;2.50;;
64903;SDS011;51401;48.882;12.598;2024-02-21T13:01:17;5.28;;;2.10;;
64903;SDS011;51401;48.882;12.598;2024-02-21T13:03:42;2.67;;;1.90;;
64903;SDS011;51401;48.882;12.598;2024-02-21T13:06:08;4.10;;;1.65;;
64903;SDS011;51401;48.882;12.598;2024-02-21T13:08:35;3.22;;;2.20;;
64903;SDS011;51401;48.882;12.598;2024-02-21T13:11:01;3.22;;;1.70;;
64903;SDS011;51401;48.882;12.598;2024-02-21T13:13:26;5.88;;;2.17;;
64903;SDS011;51401;48.882;12.598;2024-02-21T13:15:52;4.30;;;2.03;;
64903;SDS011;51401;48.882;12.598;2024-02-21T13:18:17;10.82;;;2.67;;
64903;SDS011;51401;48.882;12.598;2024-02-21T13:20:42;2.80;;;1.80;;
64903;SDS011;51401;48.882;12.598;2024-02-21T13:23:08;9.68;;;2.67;;
64903;SDS011;51401;48.882;12.598;2024-02-21T13:25:33;3.78;;;2.00;;
64903;SDS011;51401;48.882;12.598;2024-02-21T13:27:58;6.05;;;1.90;;
64903;SDS011;51401;48.882;12.598;2024-02-21T13:30:24;3.13;;;1.70;;
64903;SDS011;51401;48.882;12.598;2024-02-21T13:32:50;2.60;;;1.60;;
64903;SDS011;51401;48.882;12.598;2024-02-21T13:35:16;2.88;;;1.63;;
64903;SDS011;51401;48.882;12.598;2024-02-21T13:37:41;2.33;;;1.60;;
64903;SDS011;51401;48.882;12.598;2024-02-21T13:40:07;4.90;;;1.08;;
64903;SDS011;51401;48.882;12.598;2024-02-21T13:42:36;1.83;;;1.20;;
64903;SDS011;51401;48.882;12.598;2024-02-21T13:45:01;2.72;;;1.30;;
64903;SDS011;51401;48.882;12.598;2024-02-21T13:47:27;1.98;;;1.10;;
64903;SDS011;51401;48.882;12.598;2024-02-21T13:49:53;3.38;;;1.23;;
64903;SDS011;51401;48.882;12.598;2024-02-21T13:52:18;2.03;;;1.40;;
64903;SDS011;51401;48.882;12.598;2024-02-21T13:54:46;3.50;;;1.88;;
64903;SDS011;51401;48.882;12.598;2024-02-21T13:57:11;3.67;;;1.30;;
64903;SDS011;51401;48.882;12.598;2024-02-21T13:59:37;2.40;;;1.10;;
64903;SDS011;51401;48.882;12.598;2024-02-21T14:02:02;2.20;;;1.10;;
64903;SDS011;51401;48.882;12.598;2024-02-21T14:04:27;2.35;;;1.27;;
64903;SDS011;51401;48.882;12.598;2024-02-21T14:06:55;2.33;;;1.20;;
64903;SDS011;51401;48.882;12.598;2024-02-21T14:09:20;2.08;;;1.42;;
64903;SDS011;51401;48.882;12.598;2024-02-21T14:11:45;1.98;;;1.63;;
64903;SDS011;51401;48.882;12.598;2024-02-21T14:14:11;2.63;;;1.20;;
64903;SDS011;51401;48.882;12.598;2024-02-21T14:16:36;5.27;;;1.83;;
64903;SDS011;51401;48.882;12.598;2024-02-21T14:19:02;3.65;;;1.38;;
64903;SDS011;51401;48.882;12.598;2024-02-21T14:21:27;2.67;;;1.33;;
64903;SDS011;51401;48.882;12.598;2024-02-21T14:23:53;3.08;;;1.88;;
64903;SDS011;51401;48.882;12.598;2024-02-21T14:26:19;3.95;;;1.65;;
64903;SDS011;51401;48.882;12.598;2024-02-21T14:28:44;2.85;;;1.27;;
64903;SDS011;51401;48.882;12.598;2024-02-21T14:31:13;3.28;;;1.20;;
64903;SDS011;51401;48.882;12.598;2024-02-21T14:33:38;1.95;;;0.98;;